createdAt,value
2022-12-20T00:01:34.227Z,50.49
2022-12-20T00:04:05.434Z,50.45
2022-12-20T00:06:35.226Z,50.45
2022-12-20T00:09:06.167Z,50.66
2022-12-20T00:11:33.089Z,50.62
2022-12-20T00:13:59.920Z,50.62
2022-12-20T00:16:29.048Z,50.45
2022-12-20T00:19:00.111Z,50.73
2022-12-20T00:21:28.469Z,51.10
2022-12-20T00:23:55.865Z,50.76
2022-12-20T00:26:29.311Z,50.68
2022-12-20T00:28:56.797Z,50.75
2022-12-20T00:31:25.865Z,51.30
2022-12-20T00:33:55.393Z,50.88
2022-12-20T00:36:24.527Z,50.83
2022-12-20T00:38:55.066Z,51.25
2022-12-20T00:41:28.673Z,51.08
2022-12-20T00:43:55.875Z,51.07
2022-12-20T00:46:24.537Z,51.25
2022-12-20T00:48:53.534Z,51.25
2022-12-20T00:51:27.397Z,50.93
2022-12-20T00:53:54.845Z,51.27
2022-12-20T00:56:22.113Z,51.03
2022-12-20T00:58:49.507Z,50.69
2022-12-20T01:01:27.823Z,50.78
2022-12-20T01:03:55.290Z,50.90
2022-12-20T01:06:24.887Z,51.19
2022-12-20T01:08:53.755Z,50.76
2022-12-20T01:11:27.347Z,50.72
2022-12-20T01:13:57.286Z,50.71
2022-12-20T01:16:45.556Z,50.79
2022-12-20T01:19:17.321Z,50.74
2022-12-20T01:21:44.720Z,50.80
2022-12-20T01:24:16.667Z,51.62
2022-12-20T01:26:44.513Z,50.98
2022-12-20T01:29:12.141Z,51.03
2022-12-20T01:31:39.014Z,51.36
2022-12-20T01:34:06.722Z,51.36
2022-12-20T01:36:35.835Z,51.23
2022-12-20T01:39:11.483Z,51.42
2022-12-20T01:41:39.247Z,51.24
2022-12-20T01:44:18.321Z,51.58
2022-12-20T01:46:48.092Z,51.32
2022-12-20T01:49:46.007Z,51.17
2022-12-20T01:52:23.116Z,51.24
2022-12-20T01:55:13.750Z,51.61
2022-12-20T01:57:51.555Z,51.42
2022-12-20T02:00:19.177Z,51.18
2022-12-20T02:02:49.434Z,51.09
2022-12-20T02:05:19.078Z,51.29
2022-12-20T02:07:49.502Z,51.41
2022-12-20T02:10:18.617Z,51.46
2022-12-20T02:12:47.760Z,51.62
2022-12-20T02:15:39.209Z,51.69
2022-12-20T02:18:24.159Z,51.89
2022-12-20T02:21:25.784Z,51.82
2022-12-20T02:24:47.566Z,51.71
2022-12-20T02:27:42.488Z,51.67
2022-12-20T02:30:18.580Z,51.70
2022-12-20T02:32:59.085Z,51.45
2022-12-20T02:35:31.484Z,51.43
2022-12-20T02:38:04.946Z,51.58
2022-12-20T02:40:42.372Z,51.77
2022-12-20T02:43:29.424Z,51.75
2022-12-20T02:45:59.278Z,51.48
2022-12-20T02:48:29.322Z,51.44
2022-12-20T02:50:59.145Z,51.43
2022-12-20T02:53:26.580Z,51.63
2022-12-20T02:56:14.822Z,51.35
2022-12-20T02:58:58.463Z,51.09
2022-12-20T03:01:36.733Z,51.43
2022-12-20T03:04:05.036Z,51.57
2022-12-20T03:06:31.817Z,51.15
2022-12-20T03:08:58.609Z,51.34
2022-12-20T03:11:28.196Z,50.94
2022-12-20T03:13:55.323Z,51.23
2022-12-20T03:16:22.266Z,51.41
2022-12-20T03:18:49.153Z,51.30
2022-12-20T03:21:15.986Z,50.94
2022-12-20T03:23:42.797Z,51.38
2022-12-20T03:26:09.604Z,51.55
2022-12-20T03:28:41.952Z,51.35
2022-12-20T03:31:11.480Z,51.40
2022-12-20T03:33:45.105Z,51.27
2022-12-20T03:36:12.224Z,51.60
2022-12-20T03:38:39.415Z,51.67
2022-12-20T03:41:07.966Z,51.76
2022-12-20T03:43:34.833Z,51.28
2022-12-20T03:46:02.254Z,51.41
2022-12-20T03:48:34.298Z,51.33
2022-12-20T03:51:01.207Z,51.53
2022-12-20T03:53:28.007Z,51.68
2022-12-20T03:55:54.980Z,51.92
2022-12-20T03:58:22.017Z,51.85
2022-12-20T04:00:48.979Z,51.74
2022-12-20T04:03:37.994Z,51.80
2022-12-20T04:06:04.963Z,52.17
2022-12-20T04:08:32.189Z,52.02
2022-12-20T04:11:17.490Z,52.26
2022-12-20T04:14:07.227Z,52.01
2022-12-20T04:16:34.630Z,52.10
2022-12-20T04:19:02.410Z,52.05
2022-12-20T04:21:35.956Z,51.79
2022-12-20T04:24:05.748Z,52.31
2022-12-20T04:26:51.112Z,52.07
2022-12-20T04:29:18.184Z,52.38
2022-12-20T04:31:46.182Z,52.67
2022-12-20T04:34:13.072Z,52.80
2022-12-20T04:36:40.043Z,52.63
2022-12-20T04:39:12.867Z,52.72
2022-12-20T04:41:59.908Z,52.50
2022-12-20T04:44:26.780Z,52.62
2022-12-20T04:46:53.734Z,52.82
2022-12-20T04:49:20.679Z,52.65
2022-12-20T04:51:47.470Z,52.72
2022-12-20T04:54:16.764Z,52.58
2022-12-20T04:56:51.016Z,52.52
2022-12-20T04:59:21.729Z,52.76
2022-12-20T05:01:51.571Z,52.54
2022-12-20T05:04:37.912Z,52.68
2022-12-20T05:07:05.370Z,52.65
2022-12-20T05:09:33.012Z,52.62
2022-12-20T05:12:00.434Z,52.62
2022-12-20T05:14:27.384Z,52.42
2022-12-20T05:16:54.558Z,52.38
2022-12-20T05:19:21.559Z,52.49
2022-12-20T05:22:06.916Z,52.27
2022-12-20T05:24:55.131Z,52.38
2022-12-20T05:27:31.820Z,52.29
2022-12-20T05:29:58.647Z,52.30
2022-12-20T05:32:27.660Z,52.09
2022-12-20T05:34:55.324Z,52.05
2022-12-20T05:37:22.395Z,52.19
2022-12-20T05:39:50.291Z,52.18
2022-12-20T05:42:20.999Z,52.13
2022-12-20T05:44:51.491Z,52.07
2022-12-20T05:47:20.516Z,51.59
2022-12-20T05:49:49.811Z,51.64
2022-12-20T05:52:16.633Z,51.70
2022-12-20T05:54:43.692Z,51.62
2022-12-20T05:57:15.904Z,51.84
2022-12-20T05:59:42.841Z,51.74
2022-12-20T06:02:27.807Z,51.97
2022-12-20T06:05:02.709Z,51.61
2022-12-20T06:07:30.370Z,51.82
2022-12-20T06:09:59.738Z,51.77
2022-12-20T06:12:38.420Z,51.54
2022-12-20T06:15:05.619Z,51.54
2022-12-20T06:17:35.318Z,51.68
2022-12-20T06:20:02.693Z,51.61
2022-12-20T06:22:30.184Z,51.74
2022-12-20T06:24:57.659Z,51.57
2022-12-20T06:27:28.024Z,51.73
2022-12-20T06:30:16.985Z,51.37
2022-12-20T06:33:04.350Z,51.46
2022-12-20T06:35:31.977Z,51.45
2022-12-20T06:37:59.687Z,51.23
2022-12-20T06:40:29.589Z,51.25
2022-12-20T06:42:59.949Z,51.07
2022-12-20T06:45:26.869Z,51.26
2022-12-20T06:47:54.532Z,50.97
2022-12-20T06:50:23.356Z,50.83
2022-12-20T06:52:50.416Z,50.69
2022-12-20T06:55:17.556Z,50.72
2022-12-20T06:57:45.901Z,50.43
2022-12-20T07:00:13.913Z,50.45
2022-12-20T07:02:41.028Z,50.41
2022-12-20T07:05:08.265Z,50.50
2022-12-20T07:07:40.228Z,50.46
2022-12-20T07:10:11.267Z,50.46
2022-12-20T07:12:42.372Z,50.65
2022-12-20T07:15:12.362Z,50.32
2022-12-20T07:17:39.231Z,50.09
2022-12-20T07:20:12.927Z,50.03
2022-12-20T07:22:40.609Z,50.03
2022-12-20T07:25:07.594Z,50.04
2022-12-20T07:27:34.365Z,49.99
2022-12-20T07:30:01.116Z,50.00
2022-12-20T07:32:27.902Z,50.17
2022-12-20T07:34:54.675Z,50.13
2022-12-20T07:37:21.554Z,49.91
2022-12-20T07:39:48.320Z,50.17
2022-12-20T07:42:15.590Z,50.22
2022-12-20T07:44:43.393Z,50.01
2022-12-20T07:47:10.588Z,50.09
2022-12-20T07:49:37.574Z,50.26
2022-12-20T07:52:05.772Z,50.29
2022-12-20T07:54:37.567Z,50.21
2022-12-20T07:57:15.239Z,50.43
2022-12-20T07:59:47.586Z,50.38
2022-12-20T08:02:23.480Z,50.28
2022-12-20T08:04:50.751Z,50.29
2022-12-20T08:07:17.689Z,50.22
2022-12-20T08:09:45.380Z,50.13
2022-12-20T08:12:16.877Z,50.02
2022-12-20T08:14:44.024Z,49.98
2022-12-20T08:17:11.762Z,50.14
2022-12-20T08:19:38.784Z,50.12
2022-12-20T08:22:06.148Z,49.92
2022-12-20T08:24:34.516Z,50.06
2022-12-20T08:27:01.388Z,50.14
2022-12-20T08:29:28.277Z,49.91
2022-12-20T08:31:55.093Z,49.97
2022-12-20T08:34:21.908Z,50.14
2022-12-20T08:36:48.771Z,50.17
2022-12-20T08:39:15.556Z,49.92
2022-12-20T08:41:42.377Z,49.93
2022-12-20T08:44:10.619Z,50.04
2022-12-20T08:46:37.761Z,49.64
2022-12-20T08:49:06.419Z,49.86
2022-12-20T08:51:33.288Z,49.77
2022-12-20T08:54:00.267Z,49.81
2022-12-20T08:56:27.014Z,49.68
2022-12-20T08:58:53.838Z,49.58
2022-12-20T09:01:21.853Z,49.71
2022-12-20T09:03:49.360Z,49.62
2022-12-20T09:06:21.420Z,49.57
2022-12-20T09:08:48.884Z,49.85
2022-12-20T09:11:25.128Z,49.58
2022-12-20T09:13:58.002Z,49.79
2022-12-20T09:16:32.239Z,49.78
2022-12-20T09:19:05.419Z,49.92
2022-12-20T09:21:34.136Z,49.65
2022-12-20T09:24:00.887Z,49.54
2022-12-20T09:26:27.775Z,49.55
2022-12-20T09:28:54.633Z,49.67
2022-12-20T09:31:25.269Z,49.56
2022-12-20T09:33:57.891Z,49.48
2022-12-20T09:36:27.509Z,49.53
2022-12-20T09:38:55.562Z,49.74
2022-12-20T09:41:30.093Z,49.52
2022-12-20T09:43:59.212Z,49.73
2022-12-20T09:46:27.236Z,49.62
2022-12-20T09:48:54.513Z,49.48
2022-12-20T09:51:47.237Z,49.63
2022-12-20T09:54:46.701Z,49.58
2022-12-20T09:57:48.987Z,49.53
2022-12-20T10:00:19.172Z,49.07
2022-12-20T10:03:06.112Z,49.13
2022-12-20T10:05:56.402Z,49.39
2022-12-20T10:08:50.549Z,49.29
2022-12-20T10:11:51.106Z,49.14
2022-12-20T10:14:27.107Z,48.88
2022-12-20T10:17:01.496Z,48.96
2022-12-20T10:19:49.825Z,49.01
2022-12-20T10:22:29.391Z,48.86
2022-12-20T10:25:11.675Z,48.82
2022-12-20T10:27:43.134Z,48.71
2022-12-20T10:30:16.157Z,48.63
2022-12-20T10:32:49.573Z,48.54
2022-12-20T10:35:40.367Z,48.62
2022-12-20T10:38:13.715Z,48.59
2022-12-20T10:41:19.556Z,48.38
2022-12-20T10:43:47.808Z,48.43
2022-12-20T10:46:19.305Z,48.35
2022-12-20T10:48:48.852Z,47.94
2022-12-20T10:51:21.912Z,48.20
2022-12-20T10:53:57.669Z,48.10
2022-12-20T10:56:29.326Z,48.12
2022-12-20T10:59:03.340Z,48.17
2022-12-20T11:01:35.438Z,48.15
2022-12-20T11:04:07.052Z,48.08
2022-12-20T11:06:45.386Z,48.02
2022-12-20T11:09:35.273Z,48.07
2022-12-20T11:12:12.575Z,47.80
2022-12-20T11:14:41.788Z,48.04
2022-12-20T11:17:14.519Z,47.79
2022-12-20T11:20:16.742Z,47.92
2022-12-20T11:22:51.365Z,47.63
2022-12-20T11:25:56.266Z,47.78
2022-12-20T11:28:44.511Z,47.62
2022-12-20T11:31:36.297Z,47.63
2022-12-20T11:34:42.673Z,48.12
2022-12-20T11:37:24.927Z,47.53
2022-12-20T11:40:10.746Z,47.54
2022-12-20T11:43:25.185Z,47.47
2022-12-20T11:46:30.834Z,47.68
2022-12-20T11:49:27.767Z,47.63
2022-12-20T11:52:10.541Z,47.41
2022-12-20T11:54:47.109Z,47.47
2022-12-20T11:57:26.591Z,47.34
2022-12-20T12:00:00.523Z,47.33
2022-12-20T12:02:51.611Z,47.25
2022-12-20T12:05:51.253Z,47.24
2022-12-20T12:08:27.882Z,47.26
2022-12-20T12:11:06.280Z,47.35
2022-12-20T12:13:37.942Z,46.89
2022-12-20T12:16:30.397Z,47.10
2022-12-20T12:19:00.668Z,47.03
2022-12-20T12:21:37.193Z,47.00
2022-12-20T12:24:33.435Z,47.00
2022-12-20T12:27:00.899Z,47.00
2022-12-20T12:29:30.865Z,46.87
2022-12-20T12:32:11.186Z,46.85
2022-12-20T12:35:28.541Z,46.85
2022-12-20T12:38:36.253Z,46.91
2022-12-20T12:41:34.985Z,46.89
2022-12-20T12:44:20.669Z,47.02
2022-12-20T12:46:58.155Z,46.60
2022-12-20T12:49:29.804Z,46.71
2022-12-20T12:52:01.327Z,46.77
2022-12-20T12:54:39.405Z,46.84
2022-12-20T12:57:16.166Z,46.73
2022-12-20T12:59:48.661Z,46.66
2022-12-20T13:02:16.208Z,46.69
2022-12-20T13:05:10.556Z,46.77
2022-12-20T13:07:37.388Z,46.87
2022-12-20T13:10:10.201Z,46.85
2022-12-20T13:12:36.911Z,46.87
2022-12-20T13:15:26.395Z,46.79
2022-12-20T13:18:17.732Z,46.84
2022-12-20T13:21:29.183Z,46.91
2022-12-20T13:24:42.427Z,47.17
2022-12-20T13:27:23.557Z,46.94
2022-12-20T13:29:57.527Z,46.76
2022-12-20T13:32:56.861Z,47.01
2022-12-20T13:35:26.895Z,46.76
2022-12-20T13:38:01.883Z,46.94
2022-12-20T13:40:43.628Z,46.75
2022-12-20T13:43:19.439Z,46.80
2022-12-20T13:45:51.127Z,46.82
2022-12-20T13:48:28.644Z,46.77
2022-12-20T13:50:57.412Z,46.67
2022-12-20T13:53:27.167Z,46.75
2022-12-20T13:55:54.874Z,46.72
2022-12-20T13:58:27.243Z,46.61
2022-12-20T14:01:05.477Z,46.69
2022-12-20T14:03:33.849Z,46.52
2022-12-20T14:06:09.805Z,46.58
2022-12-20T14:08:42.296Z,46.61
2022-12-20T14:11:24.156Z,46.37
2022-12-20T14:14:00.421Z,46.69
2022-12-20T14:16:30.752Z,46.98
2022-12-20T14:18:57.445Z,46.76
2022-12-20T14:21:25.615Z,46.78
2022-12-20T14:23:56.533Z,46.92
2022-12-20T14:26:45.458Z,46.88
2022-12-20T14:29:18.396Z,46.66
2022-12-20T14:31:49.927Z,46.70
2022-12-20T14:34:29.329Z,46.55
2022-12-20T14:37:19.835Z,47.05
2022-12-20T14:40:11.212Z,46.74
2022-12-20T14:42:40.192Z,46.75
2022-12-20T14:45:09.616Z,46.62
2022-12-20T14:47:37.936Z,46.69
2022-12-20T14:50:18.779Z,46.79
2022-12-20T14:52:46.048Z,46.67
2022-12-20T14:55:25.380Z,46.95
2022-12-20T14:57:55.173Z,46.68
2022-12-20T15:00:29.812Z,46.77
2022-12-20T15:02:56.724Z,46.57
2022-12-20T15:05:36.365Z,46.66
2022-12-20T15:08:33.779Z,46.71
2022-12-20T15:11:10.222Z,46.81
2022-12-20T15:13:49.795Z,46.72
2022-12-20T15:16:24.140Z,46.69
2022-12-20T15:18:55.119Z,46.47
2022-12-20T15:21:42.655Z,47.06
2022-12-20T15:24:14.222Z,46.63
2022-12-20T15:26:41.356Z,46.64
2022-12-20T15:29:15.555Z,46.77
2022-12-20T15:31:42.529Z,46.51
2022-12-20T15:34:38.220Z,46.94
2022-12-20T15:37:06.179Z,46.73
2022-12-20T15:39:34.155Z,46.80
2022-12-20T15:42:04.882Z,46.60
2022-12-20T15:44:32.346Z,46.97
2022-12-20T15:46:59.471Z,46.86
2022-12-20T15:49:30.281Z,47.16
2022-12-20T15:51:57.091Z,47.16
2022-12-20T15:54:34.604Z,47.10
2022-12-20T15:57:13.524Z,47.10
2022-12-20T16:02:30.745Z,47.01
2022-12-20T16:04:58.637Z,47.05
2022-12-20T16:07:25.544Z,46.89
2022-12-20T16:09:52.380Z,46.76
2022-12-20T16:12:28.411Z,46.84
2022-12-20T16:14:55.382Z,46.75
2022-12-20T16:17:22.254Z,46.87
2022-12-20T16:19:49.058Z,46.83
2022-12-20T16:22:19.237Z,46.70
2022-12-20T16:24:46.596Z,46.62
2022-12-20T16:27:13.940Z,46.80
2022-12-20T16:29:41.493Z,46.59
2022-12-20T16:32:18.869Z,46.87
2022-12-20T16:34:46.302Z,46.68
2022-12-20T16:37:13.856Z,46.69
2022-12-20T16:39:41.592Z,46.50
2022-12-20T16:42:17.308Z,47.01
2022-12-20T16:44:45.335Z,46.91
2022-12-20T16:47:13.658Z,46.92
2022-12-20T16:49:47.294Z,46.95
2022-12-20T16:52:19.586Z,46.94
2022-12-20T16:54:46.604Z,46.91
2022-12-20T16:57:13.533Z,46.84
2022-12-20T16:59:40.353Z,46.73
2022-12-20T17:02:24.808Z,46.90
2022-12-20T17:04:52.010Z,46.86
2022-12-20T17:07:18.871Z,46.72
2022-12-20T17:12:30.040Z,46.65
2022-12-20T17:14:57.036Z,46.65
2022-12-20T17:17:23.813Z,46.56
2022-12-20T17:19:50.617Z,46.37
2022-12-20T17:22:24.731Z,46.57
2022-12-20T17:24:51.720Z,46.41
2022-12-20T17:27:18.921Z,46.56
2022-12-20T17:29:45.720Z,46.49
2022-12-20T17:32:21.603Z,46.56
2022-12-20T17:34:48.764Z,46.64
2022-12-20T17:37:17.783Z,46.46
2022-12-20T17:39:44.583Z,46.62
2022-12-20T17:42:19.142Z,46.43
2022-12-20T17:44:48.772Z,46.14
2022-12-20T17:47:17.135Z,46.54
2022-12-20T17:49:43.887Z,46.60
2022-12-20T17:52:15.276Z,46.47
2022-12-20T17:54:42.095Z,46.66
2022-12-20T17:57:15.900Z,46.45
2022-12-20T17:59:43.104Z,46.43
2022-12-20T18:02:25.803Z,46.56
2022-12-20T18:04:53.102Z,46.37
2022-12-20T18:07:20.344Z,46.32
2022-12-20T18:09:48.293Z,46.22
2022-12-20T18:12:15.272Z,46.27
2022-12-20T18:14:42.138Z,46.20
2022-12-20T18:17:09.015Z,46.06
2022-12-20T18:19:35.925Z,46.15
2022-12-20T18:22:04.438Z,46.07
2022-12-20T18:24:31.285Z,46.14
2022-12-20T18:26:58.071Z,46.33
2022-12-20T18:29:24.863Z,46.25
2022-12-20T18:31:52.405Z,46.41
2022-12-20T18:34:19.437Z,46.46
2022-12-20T18:36:46.229Z,46.41
2022-12-20T18:39:13.546Z,46.51
2022-12-20T18:41:42.781Z,46.66
2022-12-20T18:44:11.272Z,47.15
2022-12-20T18:46:38.201Z,47.60
2022-12-20T18:49:05.131Z,47.76
2022-12-20T18:51:37.903Z,48.17
2022-12-20T18:54:07.759Z,48.02
2022-12-20T18:56:37.646Z,47.72
2022-12-20T18:59:11.485Z,47.34
2022-12-20T19:01:41.466Z,46.93
2022-12-20T19:04:09.062Z,47.21
2022-12-20T19:06:36.823Z,47.03
2022-12-20T19:09:07.900Z,46.98
2022-12-20T19:11:35.303Z,47.03
2022-12-20T19:14:02.546Z,46.93
2022-12-20T19:16:32.433Z,46.98
2022-12-20T19:19:01.492Z,47.07
2022-12-20T19:21:31.585Z,46.77
2022-12-20T19:24:04.946Z,47.01
2022-12-20T19:26:31.743Z,46.92
2022-12-20T19:28:58.853Z,46.88
2022-12-20T19:31:32.078Z,46.60
2022-12-20T19:34:03.243Z,46.92
2022-12-20T19:36:38.629Z,46.77
2022-12-20T19:39:10.495Z,46.65
2022-12-20T19:41:37.283Z,46.70
2022-12-20T19:44:05.990Z,46.61
2022-12-20T19:46:33.190Z,46.68
2022-12-20T19:49:01.271Z,46.30
2022-12-20T19:51:28.847Z,46.63
2022-12-20T19:53:57.632Z,46.56
2022-12-20T19:56:29.095Z,46.53
2022-12-20T19:58:56.481Z,46.46
2022-12-20T20:01:26.702Z,46.42
2022-12-20T20:03:57.066Z,46.49
2022-12-20T20:06:24.380Z,46.45
2022-12-20T20:08:51.696Z,46.47
2022-12-20T20:11:20.098Z,46.37
2022-12-20T20:13:47.451Z,46.35
2022-12-20T20:16:20.257Z,46.42
2022-12-20T20:18:49.691Z,46.36
2022-12-20T20:21:21.227Z,46.30
2022-12-20T20:23:50.473Z,46.37
2022-12-20T20:26:22.216Z,46.61
2022-12-20T20:28:49.250Z,46.69
2022-12-20T20:31:18.431Z,46.66
2022-12-20T20:33:46.128Z,46.65
2022-12-20T20:36:16.768Z,46.48
2022-12-20T20:38:43.819Z,46.74
2022-12-20T20:41:11.537Z,46.57
2022-12-20T20:43:39.166Z,46.80
2022-12-20T20:46:09.305Z,46.83
2022-12-20T20:48:36.983Z,46.79
2022-12-20T20:51:04.811Z,46.70
2022-12-20T20:53:34.116Z,46.83
2022-12-20T20:56:02.946Z,46.87
2022-12-20T20:58:30.186Z,46.90
2022-12-20T21:01:01.695Z,46.91
2022-12-20T21:03:30.518Z,46.95
2022-12-20T21:08:44.862Z,46.80
2022-12-20T21:11:11.872Z,46.80
2022-12-20T21:13:38.929Z,46.96
2022-12-20T21:16:08.517Z,46.99
2022-12-20T21:18:35.376Z,46.99
2022-12-20T21:21:11.432Z,47.18
2022-12-20T21:23:43.567Z,47.04
2022-12-20T21:26:10.403Z,47.23
2022-12-20T21:28:37.225Z,47.11
2022-12-20T21:31:09.014Z,47.38
2022-12-20T21:33:35.968Z,47.45
2022-12-20T21:36:11.027Z,47.41
2022-12-20T21:38:37.888Z,47.39
2022-12-20T21:41:08.853Z,47.48
2022-12-20T21:43:35.647Z,47.60
2022-12-20T21:46:03.048Z,47.55
2022-12-20T21:48:30.639Z,47.13
2022-12-20T21:51:13.627Z,47.79
2022-12-20T21:53:46.781Z,47.60
2022-12-20T21:56:13.938Z,47.56
2022-12-20T21:58:40.749Z,47.48
2022-12-20T22:01:09.004Z,47.66
2022-12-20T22:03:37.708Z,47.52
2022-12-20T22:06:05.086Z,47.60
2022-12-20T22:08:33.109Z,47.78
2022-12-20T22:11:01.338Z,47.66
2022-12-20T22:13:30.604Z,47.59
2022-12-20T22:16:05.311Z,47.54
2022-12-20T22:18:32.218Z,47.48
2022-12-20T22:20:59.020Z,47.69
2022-12-20T22:23:25.806Z,47.74
2022-12-20T22:25:52.633Z,47.56
2022-12-20T22:28:19.394Z,47.81
2022-12-20T22:30:46.262Z,47.51
2022-12-20T22:33:13.168Z,47.71
2022-12-20T22:35:40.988Z,47.56
2022-12-20T22:38:07.878Z,47.51
2022-12-20T22:40:34.674Z,47.65
2022-12-20T22:43:01.504Z,47.61
2022-12-20T22:45:28.323Z,47.60
2022-12-20T22:47:55.115Z,47.56
2022-12-20T22:50:22.129Z,47.59
2022-12-20T22:52:48.930Z,47.49
2022-12-20T22:55:15.855Z,47.51
2022-12-20T22:57:42.647Z,47.62
2022-12-20T23:00:13.137Z,47.62
2022-12-20T23:02:41.092Z,47.71
2022-12-20T23:05:09.084Z,47.52
2022-12-20T23:07:36.024Z,47.63
2022-12-20T23:10:02.910Z,47.66
2022-12-20T23:12:48.091Z,47.70
2022-12-20T23:15:33.309Z,47.69
2022-12-20T23:18:00.181Z,47.76
2022-12-20T23:20:53.138Z,47.93
2022-12-20T23:23:19.969Z,47.98
2022-12-20T23:25:46.724Z,47.83
2022-12-20T23:28:13.511Z,47.73
2022-12-20T23:30:40.332Z,47.98
2022-12-20T23:33:07.099Z,47.87
2022-12-20T23:35:33.881Z,47.92
2022-12-20T23:38:02.235Z,47.91
2022-12-20T23:40:29.035Z,47.92
2022-12-20T23:42:55.773Z,48.04
2022-12-20T23:45:22.607Z,48.16
2022-12-20T23:47:49.431Z,48.39
2022-12-20T23:50:16.242Z,48.13
2022-12-20T23:52:43.016Z,48.53
2022-12-20T23:55:09.996Z,48.59
2022-12-20T23:57:36.751Z,48.71
